createdAt,value
2018-08-23T00:01:35.612Z,100883.03
2018-08-23T00:04:05.961Z,100883.77
2018-08-23T00:06:34.894Z,100880.19
2018-08-23T00:09:03.759Z,100883.61
2018-08-23T00:11:36.537Z,100879.59
2018-08-23T00:14:05.086Z,100875.08
2018-08-23T00:16:40.529Z,100876.61
2018-08-23T00:19:09.057Z,100874.53
2018-08-23T00:21:44.729Z,100869.16
2018-08-23T00:24:15.801Z,100870.27
2018-08-23T00:26:49.285Z,100868.94
2018-08-23T00:29:23.042Z,100870.37
2018-08-23T00:31:53.551Z,100858.53
2018-08-23T00:34:25.738Z,100852.05
2018-08-23T00:36:54.818Z,100856.14
2018-08-23T00:39:23.397Z,100850.75
2018-08-23T00:41:57.265Z,100849.84
2018-08-23T00:44:25.784Z,100846.53
2018-08-23T00:46:56.549Z,100840.91
2018-08-23T00:49:32.149Z,100840.17
2018-08-23T00:52:00.650Z,100837.05
2018-08-23T00:54:29.169Z,100840.11
2018-08-23T00:56:57.635Z,100840.91
2018-08-23T00:59:26.108Z,100834.46
2018-08-23T01:02:11.142Z,100838.41
2018-08-23T01:04:45.565Z,100824.97
2018-08-23T01:07:16.966Z,100828.60
2018-08-23T01:09:45.770Z,100830.31
2018-08-23T01:12:14.309Z,100820.27
2018-08-23T01:14:42.892Z,100822.02
2018-08-23T01:17:16.410Z,100823.34
2018-08-23T01:19:50.208Z,100819.17
2018-08-23T01:22:18.778Z,100818.80
2018-08-23T01:24:49.405Z,100818.57
2018-08-23T01:27:23.550Z,100811.84
2018-08-23T01:29:52.169Z,100818.14
2018-08-23T01:32:26.021Z,100812.94
2018-08-23T01:34:54.486Z,100809.98
2018-08-23T01:37:34.957Z,100796.73
2018-08-23T01:40:05.244Z,100800.25
2018-08-23T01:42:35.089Z,100799.37
2018-08-23T01:45:04.969Z,100797.23
2018-08-23T01:48:06.853Z,100793.52
2018-08-23T01:50:35.399Z,100792.05
2018-08-23T01:53:03.961Z,100786.86
2018-08-23T01:55:32.413Z,100787.66
2018-08-23T01:58:00.949Z,100785.81
2018-08-23T02:00:33.549Z,100778.70
2018-08-23T02:03:02.899Z,100775.38
2018-08-23T02:05:31.478Z,100779.37
2018-08-23T02:07:59.954Z,100777.04
2018-08-23T02:10:28.485Z,100774.44
2018-08-23T02:12:58.070Z,100775.84
2018-08-23T02:15:28.324Z,100777.99
2018-08-23T02:17:57.825Z,100775.55
2018-08-23T02:20:27.301Z,100768.95
2018-08-23T02:22:56.368Z,100756.45
2018-08-23T02:25:25.265Z,100760.08
2018-08-23T02:28:03.430Z,100761.98
2018-08-23T02:30:52.993Z,100756.02
2018-08-23T02:33:21.549Z,100753.00
2018-08-23T02:36:06.525Z,100751.39
2018-08-23T02:38:36.165Z,100753.77
2018-08-23T02:41:04.722Z,100755.31
2018-08-23T02:43:33.246Z,100749.39
2018-08-23T02:46:03.094Z,100744.41
2018-08-23T02:48:31.666Z,100741.14
2018-08-23T02:51:01.030Z,100739.23
2018-08-23T02:53:43.797Z,100740.86
2018-08-23T02:56:15.392Z,100736.48
2018-08-23T02:58:59.947Z,100736.92
2018-08-23T03:01:30.425Z,100737.94
2018-08-23T03:04:13.119Z,100738.79
2018-08-23T03:07:13.073Z,100738.84
2018-08-23T03:09:45.434Z,100738.24
2018-08-23T03:12:16.741Z,100730.66
2018-08-23T03:14:45.265Z,100729.44
2018-08-23T03:18:24.928Z,100725.83
2018-08-23T03:21:04.475Z,100721.00
2018-08-23T03:23:33.015Z,100724.94
2018-08-23T03:26:01.558Z,100725.83
2018-08-23T03:28:31.763Z,100717.39
2018-08-23T03:31:00.673Z,100718.63
2018-08-23T03:33:30.772Z,100716.28
2018-08-23T03:35:59.386Z,100717.02
2018-08-23T03:38:27.932Z,100716.91
2018-08-23T03:40:56.710Z,100719.79
2018-08-23T03:43:25.233Z,100713.14
2018-08-23T03:45:55.392Z,100710.48
2018-08-23T03:48:23.903Z,100716.47
2018-08-23T03:50:53.471Z,100711.59
2018-08-23T03:53:22.924Z,100704.70
2018-08-23T03:56:06.620Z,100707.58
2018-08-23T03:58:35.492Z,100710.14
2018-08-23T04:01:05.259Z,100706.03
2018-08-23T04:03:33.790Z,100705.50
2018-08-23T04:06:17.388Z,100704.72
2018-08-23T04:08:47.164Z,100702.88
2018-08-23T04:11:16.258Z,100702.67
2018-08-23T04:13:45.906Z,100702.24
2018-08-23T04:16:14.469Z,100700.27
2018-08-23T04:18:43.038Z,100700.31
2018-08-23T04:21:11.526Z,100692.19
2018-08-23T04:23:39.993Z,100691.56
2018-08-23T04:26:08.569Z,100688.59
2018-08-23T04:28:37.114Z,100690.80
2018-08-23T04:31:05.674Z,100688.18
2018-08-23T04:33:34.189Z,100687.22
2018-08-23T04:36:02.808Z,100690.10
2018-08-23T04:38:31.329Z,100693.70
2018-08-23T04:41:08.962Z,100697.86
2018-08-23T04:43:37.511Z,100692.21
2018-08-23T04:46:10.158Z,100687.35
2018-08-23T04:48:38.759Z,100680.87
2018-08-23T04:51:07.275Z,100687.07
2018-08-23T04:53:35.810Z,100694.85
2018-08-23T04:56:04.775Z,100689.06
2018-08-23T04:58:33.310Z,100685.08
2018-08-23T05:01:01.784Z,100690.22
2018-08-23T05:03:30.303Z,100680.21
2018-08-23T05:05:58.817Z,100677.39
2018-08-23T05:08:27.317Z,100678.80
2018-08-23T05:10:55.877Z,100675.05
2018-08-23T05:13:24.399Z,100683.05
2018-08-23T05:15:52.943Z,100676.83
2018-08-23T05:18:21.541Z,100681.84
2018-08-23T05:20:50.326Z,100675.17
2018-08-23T05:23:20.309Z,100673.22
2018-08-23T05:25:48.794Z,100673.95
2018-08-23T05:28:19.573Z,100677.03
2018-08-23T05:30:49.113Z,100678.23
2018-08-23T05:33:21.610Z,100675.89
2018-08-23T05:35:50.437Z,100672.03
2018-08-23T05:38:19.915Z,100671.52
2018-08-23T05:41:02.400Z,100676.04
2018-08-23T05:43:30.877Z,100676.02
2018-08-23T05:45:59.464Z,100673.91
2018-08-23T05:48:31.104Z,100673.27
2018-08-23T05:51:04.723Z,100671.08
2018-08-23T05:53:33.329Z,100667.22
2018-08-23T05:56:02.536Z,100665.81
2018-08-23T05:58:32.450Z,100663.16
2018-08-23T06:01:01.477Z,100660.13
2018-08-23T06:03:31.302Z,100660.58
2018-08-23T06:05:59.847Z,100658.38
2018-08-23T06:08:28.353Z,100658.80
2018-08-23T06:11:03.457Z,100648.47
2018-08-23T06:13:32.019Z,100644.89
2018-08-23T06:16:01.104Z,100647.20
2018-08-23T06:18:29.643Z,100650.13
2018-08-23T06:20:58.141Z,100648.90
2018-08-23T06:23:32.686Z,100654.81
2018-08-23T06:26:01.210Z,100654.39
2018-08-23T06:28:29.700Z,100654.39
2018-08-23T06:30:59.359Z,100658.63
2018-08-23T06:33:36.747Z,100655.88
2018-08-23T06:36:05.583Z,100655.37
2018-08-23T06:38:35.769Z,100658.86
2018-08-23T06:41:05.786Z,100655.80
2018-08-23T06:43:34.834Z,100654.11
2018-08-23T06:46:03.934Z,100653.22
2018-08-23T06:48:32.762Z,100648.25
2018-08-23T06:51:02.221Z,100653.61
2018-08-23T06:53:39.709Z,100653.84
2018-08-23T06:56:08.483Z,100654.92
2018-08-23T06:58:37.014Z,100653.84
2018-08-23T07:01:10.005Z,100651.27
2018-08-23T07:03:51.137Z,100650.64
2018-08-23T07:06:20.202Z,100651.06
2018-08-23T07:08:48.750Z,100660.18
2018-08-23T07:11:22.553Z,100649.08
2018-08-23T07:13:57.842Z,100649.95
2018-08-23T07:16:26.891Z,100647.78
2018-08-23T07:18:55.970Z,100647.93
2018-08-23T07:21:24.690Z,100645.83
2018-08-23T07:23:53.214Z,100652.77
2018-08-23T07:26:21.767Z,100654.89
2018-08-23T07:28:50.373Z,100650.02
2018-08-23T07:31:18.861Z,100646.17
2018-08-23T07:33:51.384Z,100645.19
2018-08-23T07:36:27.875Z,100646.98
2018-08-23T07:38:57.065Z,100653.87
2018-08-23T07:41:25.591Z,100647.52
2018-08-23T07:43:54.519Z,100652.58
2018-08-23T07:46:23.042Z,100653.89
2018-08-23T07:48:51.604Z,100653.11
2018-08-23T07:51:25.859Z,100651.44
2018-08-23T07:53:57.579Z,100648.53
2018-08-23T07:56:28.045Z,100646.80
2018-08-23T07:58:57.586Z,100647.22
2018-08-23T08:01:31.345Z,100643.69
2018-08-23T08:04:00.520Z,100656.51
2018-08-23T08:06:29.547Z,100652.25
2018-08-23T08:09:09.197Z,100656.97
2018-08-23T08:11:52.761Z,100653.29
2018-08-23T08:14:26.440Z,100652.06
2018-08-23T08:16:59.186Z,100651.23
2018-08-23T08:19:28.494Z,100658.53
2018-08-23T08:21:57.122Z,100650.13
2018-08-23T08:24:25.662Z,100650.69
2018-08-23T08:26:54.211Z,100655.47
2018-08-23T08:29:27.948Z,100652.44
2018-08-23T08:31:56.912Z,100652.92
2018-08-23T08:34:26.000Z,100651.94
2018-08-23T08:36:54.545Z,100650.71
2018-08-23T08:39:23.125Z,100645.92
2018-08-23T08:41:51.655Z,100649.27
2018-08-23T08:44:20.187Z,100646.98
2018-08-23T08:46:49.463Z,100650.78
2018-08-23T08:49:17.963Z,100645.23
2018-08-23T08:51:46.484Z,100642.97
2018-08-23T08:54:14.995Z,100643.72
2018-08-23T08:56:45.312Z,100651.41
2018-08-23T08:59:13.814Z,100645.62
2018-08-23T09:01:42.316Z,100638.95
2018-08-23T09:04:14.999Z,100629.33
2018-08-23T09:06:45.465Z,100627.17
2018-08-23T09:09:22.899Z,100629.86
2018-08-23T09:11:51.443Z,100630.48
2018-08-23T09:14:20.998Z,100627.81
2018-08-23T09:16:49.542Z,100619.91
2018-08-23T09:19:18.377Z,100631.56
2018-08-23T09:21:56.799Z,100627.00
2018-08-23T09:24:27.782Z,100621.42
2018-08-23T09:26:56.333Z,100622.78
2018-08-23T09:29:35.974Z,100622.58
2018-08-23T09:32:19.895Z,100623.11
2018-08-23T09:34:48.761Z,100626.48
2018-08-23T09:37:17.252Z,100626.43
2018-08-23T09:39:46.907Z,100620.56
2018-08-23T09:42:16.073Z,100625.30
2018-08-23T09:44:58.929Z,100616.03
2018-08-23T09:47:28.053Z,100633.53
2018-08-23T09:49:57.258Z,100620.43
2018-08-23T09:52:30.758Z,100616.03
2018-08-23T09:54:59.354Z,100612.36
2018-08-23T09:57:28.291Z,100613.36
2018-08-23T09:59:57.450Z,100614.08
2018-08-23T10:02:31.756Z,100615.22
2018-08-23T10:05:04.290Z,100612.59
2018-08-23T10:07:38.286Z,100612.86
2018-08-23T10:10:11.980Z,100608.30
2018-08-23T10:12:45.860Z,100607.05
2018-08-23T10:15:19.626Z,100607.38
2018-08-23T10:17:53.282Z,100605.53
2018-08-23T10:20:27.033Z,100606.87
2018-08-23T10:23:02.258Z,100603.92
2018-08-23T10:25:40.807Z,100592.70
2018-08-23T10:28:11.687Z,100589.33
2018-08-23T10:30:40.804Z,100587.66
2018-08-23T10:33:09.327Z,100590.38
2018-08-23T10:35:38.439Z,100591.14
2018-08-23T10:38:07.861Z,100588.51
2018-08-23T10:40:36.345Z,100595.43
2018-08-23T10:43:04.958Z,100595.81
2018-08-23T10:45:33.489Z,100599.03
2018-08-23T10:48:07.355Z,100591.44
2018-08-23T10:50:35.876Z,100588.95
2018-08-23T10:53:04.726Z,100588.83
2018-08-23T10:55:33.276Z,100580.79
2018-08-23T10:58:01.804Z,100583.22
2018-08-23T11:00:31.278Z,100600.17
2018-08-23T11:02:59.858Z,100587.77
2018-08-23T11:05:28.514Z,100585.06
2018-08-23T11:08:02.233Z,100579.73
2018-08-23T11:10:36.416Z,100583.45
2018-08-23T11:13:10.156Z,100580.29
2018-08-23T11:15:38.724Z,100578.51
2018-08-23T11:18:12.626Z,100584.64
2018-08-23T11:20:47.238Z,100587.78
2018-08-23T11:23:18.061Z,100587.50
2018-08-23T11:25:46.862Z,100578.56
2018-08-23T11:28:20.454Z,100580.01
2018-08-23T11:30:49.308Z,100575.80
2018-08-23T11:33:17.850Z,100571.03
2018-08-23T11:35:46.369Z,100564.11
2018-08-23T11:38:15.742Z,100561.06
2018-08-23T11:40:44.322Z,100568.48
2018-08-23T11:43:12.832Z,100552.81
2018-08-23T11:45:41.361Z,100552.79
2018-08-23T11:48:10.514Z,100550.77
2018-08-23T11:50:39.086Z,100557.12
2018-08-23T11:53:07.698Z,100560.76
2018-08-23T11:55:36.173Z,100555.73
2018-08-23T11:58:04.734Z,100553.45
2018-08-23T12:00:33.221Z,100553.80
2018-08-23T12:03:01.785Z,100548.59
2018-08-23T12:05:30.293Z,100544.05
2018-08-23T12:07:58.836Z,100549.37
2018-08-23T12:10:27.369Z,100537.77
2018-08-23T12:12:55.982Z,100547.67
2018-08-23T12:15:34.570Z,100543.03
2018-08-23T12:18:03.110Z,100538.59
2018-08-23T12:20:31.658Z,100544.61
2018-08-23T12:23:00.201Z,100542.08
2018-08-23T12:25:28.768Z,100528.51
2018-08-23T12:28:02.262Z,100527.83
2018-08-23T12:30:31.506Z,100527.17
2018-08-23T12:33:00.030Z,100528.52
2018-08-23T12:35:28.886Z,100519.77
2018-08-23T12:38:02.762Z,100511.34
2018-08-23T12:40:37.298Z,100512.03
2018-08-23T12:43:08.227Z,100518.59
2018-08-23T12:45:40.866Z,100519.81
2018-08-23T12:48:10.718Z,100519.27
2018-08-23T12:50:39.588Z,100521.03
2018-08-23T12:53:08.158Z,100511.91
2018-08-23T12:55:36.706Z,100508.73
2018-08-23T12:58:11.222Z,100512.92
2018-08-23T13:00:40.879Z,100507.39
2018-08-23T13:03:09.945Z,100507.00
2018-08-23T13:05:39.349Z,100499.70
2018-08-23T13:08:08.163Z,100499.52
2018-08-23T13:10:37.146Z,100494.94
2018-08-23T13:13:05.977Z,100491.39
2018-08-23T13:15:34.863Z,100493.09
2018-08-23T13:18:03.921Z,100489.66
2018-08-23T13:20:32.477Z,100490.00
2018-08-23T13:23:01.083Z,100485.46
2018-08-23T13:25:29.610Z,100480.12
2018-08-23T13:27:58.126Z,100481.22
2018-08-23T13:30:26.698Z,100480.98
2018-08-23T13:32:55.241Z,100482.86
2018-08-23T13:35:24.920Z,100487.41
2018-08-23T13:37:53.744Z,100479.11
2018-08-23T13:40:22.279Z,100476.92
2018-08-23T13:42:50.805Z,100481.45
2018-08-23T13:45:19.335Z,100468.52
2018-08-23T13:47:47.878Z,100465.59
2018-08-23T13:50:16.446Z,100467.30
2018-08-23T13:52:45.015Z,100464.77
2018-08-23T13:55:13.554Z,100469.77
2018-08-23T13:57:42.086Z,100473.92
2018-08-23T14:00:14.771Z,100468.94
2018-08-23T14:02:43.417Z,100468.10
2018-08-23T14:05:11.882Z,100466.24
2018-08-23T14:07:40.482Z,100461.72
2018-08-23T14:10:09.001Z,100459.41
2018-08-23T14:12:37.525Z,100457.36
2018-08-23T14:15:06.196Z,100451.47
2018-08-23T14:17:34.715Z,100447.11
2018-08-23T14:20:03.227Z,100442.53
2018-08-23T14:22:31.773Z,100431.92
2018-08-23T14:25:00.297Z,100424.86
2018-08-23T14:27:28.814Z,100419.55
2018-08-23T14:29:57.342Z,100420.36
2018-08-23T14:32:25.923Z,100416.91
2018-08-23T14:34:54.492Z,100415.45
2018-08-23T14:37:23.050Z,100413.20
2018-08-23T14:39:51.702Z,100408.53
2018-08-23T14:42:20.195Z,100407.81
2018-08-23T14:44:48.703Z,100401.81
2018-08-23T14:47:22.414Z,100398.34
2018-08-23T14:49:50.963Z,100396.03
2018-08-23T14:52:19.542Z,100396.61
2018-08-23T14:54:48.102Z,100393.47
2018-08-23T14:57:21.858Z,100399.56
2018-08-23T14:59:50.421Z,100398.55
2018-08-23T15:02:18.994Z,100397.80
2018-08-23T15:04:48.705Z,100399.36
2018-08-23T15:07:18.247Z,100398.87
2018-08-23T15:09:46.851Z,100395.44
2018-08-23T15:12:15.375Z,100391.23
2018-08-23T15:14:43.926Z,100389.51
2018-08-23T15:17:12.480Z,100381.77
2018-08-23T15:19:41.259Z,100386.66
2018-08-23T15:22:10.412Z,100381.19
2018-08-23T15:24:39.777Z,100383.41
2018-08-23T15:27:08.418Z,100382.27
2018-08-23T15:29:37.266Z,100382.55
2018-08-23T15:32:05.834Z,100380.76
2018-08-23T15:34:34.364Z,100387.77
2018-08-23T15:37:02.963Z,100380.27
2018-08-23T15:39:31.474Z,100379.15
2018-08-23T15:42:00.022Z,100373.50
2018-08-23T15:44:29.098Z,100377.36
2018-08-23T15:46:57.646Z,100376.93
2018-08-23T15:49:26.190Z,100369.03
2018-08-23T15:51:55.021Z,100372.83
2018-08-23T15:54:23.658Z,100374.10
2018-08-23T15:56:52.210Z,100374.11
2018-08-23T15:59:20.920Z,100366.20
2018-08-23T16:01:49.406Z,100364.45
2018-08-23T16:04:17.914Z,100371.00
2018-08-23T16:06:46.455Z,100365.07
2018-08-23T16:09:14.963Z,100357.91
2018-08-23T16:11:43.505Z,100357.91
2018-08-23T16:14:12.037Z,100360.08
2018-08-23T16:16:45.855Z,100360.78
2018-08-23T16:19:19.698Z,100366.50
2018-08-23T16:21:53.503Z,100358.25
2018-08-23T16:24:22.184Z,100351.32
2018-08-23T16:26:56.077Z,100353.14
2018-08-23T16:29:24.594Z,100341.63
2018-08-23T16:31:53.185Z,100344.84
2018-08-23T16:34:21.738Z,100338.48
2018-08-23T16:36:50.318Z,100336.02
2018-08-23T16:39:18.894Z,100335.04
2018-08-23T16:41:47.423Z,100342.37
2018-08-23T16:44:15.966Z,100334.09
2018-08-23T16:46:44.504Z,100333.22
2018-08-23T16:49:13.054Z,100333.14
2018-08-23T16:51:41.869Z,100325.66
2018-08-23T16:54:10.408Z,100323.53
2018-08-23T16:56:38.949Z,100322.37
2018-08-23T16:59:07.557Z,100321.64
2018-08-23T17:01:36.108Z,100319.10
2018-08-23T17:04:04.731Z,100310.00
2018-08-23T17:06:33.222Z,100317.30
2018-08-23T17:09:01.756Z,100310.55
2018-08-23T17:11:30.391Z,100312.38
2018-08-23T17:13:58.914Z,100309.26
2018-08-23T17:16:32.842Z,100305.98
2018-08-23T17:19:01.447Z,100308.38
2018-08-23T17:21:30.018Z,100311.19
2018-08-23T17:23:58.604Z,100310.18
2018-08-23T17:26:27.129Z,100313.94
2018-08-23T17:28:55.686Z,100310.99
2018-08-23T17:31:24.363Z,100305.30
2018-08-23T17:33:52.930Z,100301.28
2018-08-23T17:36:21.452Z,100311.78
2018-08-23T17:38:50.343Z,100306.42
2018-08-23T17:41:18.860Z,100306.16
2018-08-23T17:43:47.471Z,100306.45
2018-08-23T17:46:16.025Z,100302.94
2018-08-23T17:48:44.594Z,100308.14
2018-08-23T17:51:13.315Z,100310.28
2018-08-23T17:53:41.883Z,100311.67
2018-08-23T17:56:10.442Z,100311.45
2018-08-23T17:58:38.971Z,100311.20
2018-08-23T18:01:07.506Z,100311.23
2018-08-23T18:03:36.197Z,100316.61
2018-08-23T18:06:04.691Z,100316.62
2018-08-23T18:08:33.224Z,100312.61
2018-08-23T18:11:01.765Z,100310.44
2018-08-23T18:13:30.306Z,100308.85
2018-08-23T18:16:04.153Z,100306.17
2018-08-23T18:18:33.028Z,100307.53
2018-08-23T18:21:01.513Z,100304.82
2018-08-23T18:23:29.993Z,100302.13
2018-08-23T18:25:58.538Z,100305.08
2018-08-23T18:28:27.042Z,100306.42
2018-08-23T18:30:55.569Z,100308.84
2018-08-23T18:33:24.686Z,100309.66
2018-08-23T18:35:53.291Z,100309.10
2018-08-23T18:38:21.852Z,100303.19
2018-08-23T18:40:50.377Z,100305.06
2018-08-23T18:43:18.962Z,100303.69
2018-08-23T18:45:47.661Z,100305.02
2018-08-23T18:48:16.282Z,100295.88
2018-08-23T18:50:44.883Z,100292.64
2018-08-23T18:53:13.397Z,100296.06
2018-08-23T18:55:41.925Z,100296.58
2018-08-23T18:58:10.477Z,100292.80
2018-08-23T19:00:38.991Z,100284.44
2018-08-23T19:03:07.521Z,100293.30
2018-08-23T19:05:36.258Z,100289.00
2018-08-23T19:08:04.797Z,100293.84
2018-08-23T19:10:33.353Z,100293.80
2018-08-23T19:13:01.931Z,100293.80
2018-08-23T19:15:35.666Z,100294.86
2018-08-23T19:18:04.226Z,100292.42
2018-08-23T19:20:32.767Z,100299.09
2018-08-23T19:23:01.295Z,100295.33
2018-08-23T19:25:29.867Z,100294.53
2018-08-23T19:27:58.434Z,100291.39
2018-08-23T19:30:27.019Z,100293.55
2018-08-23T19:32:55.563Z,100289.52
2018-08-23T19:35:24.130Z,100286.31
2018-08-23T19:37:52.635Z,100287.09
2018-08-23T19:40:21.137Z,100290.88
2018-08-23T19:42:49.699Z,100283.67
2018-08-23T19:45:18.198Z,100282.61
2018-08-23T19:47:52.116Z,100279.11
2018-08-23T19:50:20.615Z,100276.98
2018-08-23T19:52:49.614Z,100279.94
2018-08-23T19:55:18.167Z,100279.66
2018-08-23T19:57:46.722Z,100280.20
2018-08-23T20:00:15.320Z,100277.52
2018-08-23T20:02:43.785Z,100278.86
2018-08-23T20:05:12.461Z,100278.30
2018-08-23T20:07:41.073Z,100272.42
2018-08-23T20:10:09.599Z,100272.42
2018-08-23T20:12:38.146Z,100275.90
2018-08-23T20:15:06.721Z,100274.83
2018-08-23T20:17:35.226Z,100271.60
2018-08-23T20:20:03.799Z,100272.95
2018-08-23T20:22:32.295Z,100269.74
2018-08-23T20:25:00.906Z,100276.69
2018-08-23T20:27:29.379Z,100274.55
2018-08-23T20:29:57.906Z,100269.98
2018-08-23T20:32:26.523Z,100272.15
2018-08-23T20:34:54.985Z,100273.72
2018-08-23T20:37:23.569Z,100266.98
2018-08-23T20:39:52.162Z,100263.23
2018-08-23T20:42:20.768Z,100259.46
2018-08-23T20:44:49.266Z,100264.84
2018-08-23T20:47:17.786Z,100262.17
2018-08-23T20:49:46.401Z,100262.92
2018-08-23T20:52:14.995Z,100263.44
2018-08-23T20:54:45.807Z,100256.73
2018-08-23T20:57:15.301Z,100259.39
2018-08-23T20:59:43.831Z,100255.35
2018-08-23T21:02:12.347Z,100250.25
2018-08-23T21:04:40.943Z,100257.50
2018-08-23T21:07:09.365Z,100257.74
2018-08-23T21:09:37.922Z,100254.27
2018-08-23T21:12:06.481Z,100250.53
2018-08-23T21:14:35.408Z,100253.70
2018-08-23T21:17:03.921Z,100249.41
2018-08-23T21:19:32.438Z,100244.86
2018-08-23T21:22:00.991Z,100247.81
2018-08-23T21:24:29.503Z,100246.17
2018-08-23T21:26:58.059Z,100242.39
2018-08-23T21:29:26.550Z,100240.50
2018-08-23T21:31:55.088Z,100248.03
2018-08-23T21:34:23.652Z,100249.34
2018-08-23T21:36:53.002Z,100255.50
2018-08-23T21:39:21.512Z,100277.14
2018-08-23T21:41:49.999Z,100277.55
2018-08-23T21:44:18.499Z,100300.65
2018-08-23T21:46:46.973Z,100307.64
2018-08-23T21:49:15.532Z,100321.45
2018-08-23T21:51:44.049Z,100312.26
2018-08-23T21:54:12.590Z,100325.48
2018-08-23T21:56:41.142Z,100314.10
2018-08-23T21:59:09.665Z,100336.36
2018-08-23T22:01:38.218Z,100337.72
2018-08-23T22:04:06.840Z,100342.16
2018-08-23T22:06:35.398Z,100335.20
2018-08-23T22:09:05.079Z,100340.27
2018-08-23T22:11:33.592Z,100341.20
2018-08-23T22:14:02.491Z,100345.97
2018-08-23T22:16:31.013Z,100353.13
2018-08-23T22:18:59.586Z,100339.52
2018-08-23T22:21:28.145Z,100331.89
2018-08-23T22:23:56.694Z,100334.59
2018-08-23T22:26:25.283Z,100331.38
2018-08-23T22:28:53.849Z,100330.18
2018-08-23T22:31:22.416Z,100332.02
2018-08-23T22:33:50.959Z,100334.11
2018-08-23T22:36:19.486Z,100335.03
2018-08-23T22:38:48.057Z,100336.77
2018-08-23T22:41:16.636Z,100339.55
2018-08-23T22:43:45.161Z,100330.95
2018-08-23T22:46:13.715Z,100336.05
2018-08-23T22:48:42.274Z,100330.20
2018-08-23T22:51:10.766Z,100324.80
2018-08-23T22:53:40.018Z,100327.06
2018-08-23T22:56:08.585Z,100328.73
2018-08-23T22:58:37.186Z,100322.92
2018-08-23T23:01:05.718Z,100328.54
2018-08-23T23:03:39.562Z,100333.08
2018-08-23T23:06:08.023Z,100331.17
2018-08-23T23:08:36.617Z,100331.68
2018-08-23T23:11:05.459Z,100334.86
2018-08-23T23:13:33.962Z,100335.61
2018-08-23T23:16:02.474Z,100332.95
2018-08-23T23:18:30.945Z,100324.59
2018-08-23T23:20:59.502Z,100320.73
2018-08-23T23:23:28.053Z,100315.44
2018-08-23T23:25:56.685Z,100311.27
2018-08-23T23:28:25.258Z,100308.09
2018-08-23T23:30:53.785Z,100312.02
2018-08-23T23:33:28.841Z,100304.02
2018-08-23T23:35:57.367Z,100290.95
2018-08-23T23:38:25.938Z,100299.67
2018-08-23T23:40:54.498Z,100309.11
2018-08-23T23:43:23.059Z,100312.19
2018-08-23T23:45:51.600Z,100307.75
2018-08-23T23:48:20.072Z,100305.53
2018-08-23T23:50:48.889Z,100300.83
2018-08-23T23:53:17.392Z,100310.11
2018-08-23T23:55:45.880Z,100312.50
2018-08-23T23:58:14.410Z,100301.59
